sensor_id;sensor_type;location;lat;lon;timestamp;P1;durP1;ratioP1;P2;durP2;ratioP2
47053;SDS011;32811;52.382;5.270;2024-03-23T00:52:27;13.23;;;2.72;;
47053;SDS011;32811;52.382;5.270;2024-03-23T00:54:52;14.82;;;3.08;;
47053;SDS011;32811;52.382;5.270;2024-03-23T00:57:18;10.15;;;1.98;;
47053;SDS011;32811;52.382;5.270;2024-03-23T00:59:43;12.80;;;2.88;;
47053;SDS011;32811;52.382;5.270;2024-03-23T01:02:09;8.98;;;2.53;;
47053;SDS011;32811;52.382;5.270;2024-03-23T01:04:34;10.82;;;2.80;;
47053;SDS011;32811;52.382;5.270;2024-03-23T01:07:00;10.85;;;3.40;;
47053;SDS011;32811;52.382;5.270;2024-03-23T01:09:25;16.63;;;4.10;;
47053;SDS011;32811;52.382;5.270;2024-03-23T01:11:51;18.33;;;3.70;;
47053;SDS011;32811;52.382;5.270;2024-03-23T01:14:18;12.13;;;3.72;;
47053;SDS011;32811;52.382;5.270;2024-03-23T01:16:43;5.50;;;2.55;;
47053;SDS011;32811;52.382;5.270;2024-03-23T01:19:09;8.18;;;2.65;;
47053;SDS011;32811;52.382;5.270;2024-03-23T01:21:34;16.95;;;4.80;;
47053;SDS011;32811;52.382;5.270;2024-03-23T01:24:00;16.60;;;3.67;;
47053;SDS011;32811;52.382;5.270;2024-03-23T01:26:26;12.68;;;3.58;;
47053;SDS011;32811;52.382;5.270;2024-03-23T01:28:51;15.55;;;3.92;;
47053;SDS011;32811;52.382;5.270;2024-03-23T01:31:17;19.85;;;4.35;;
47053;SDS011;32811;52.382;5.270;2024-03-23T01:33:42;15.43;;;3.00;;
47053;SDS011;32811;52.382;5.270;2024-03-23T01:36:08;13.55;;;3.13;;
47053;SDS011;32811;52.382;5.270;2024-03-23T01:38:33;10.90;;;2.80;;
47053;SDS011;32811;52.382;5.270;2024-03-23T01:40:59;14.25;;;3.53;;
47053;SDS011;32811;52.382;5.270;2024-03-23T01:43:24;15.90;;;3.95;;
47053;SDS011;32811;52.382;5.270;2024-03-23T01:45:50;20.80;;;4.72;;
47053;SDS011;32811;52.382;5.270;2024-03-23T01:48:19;11.52;;;4.45;;
47053;SDS011;32811;52.382;5.270;2024-03-23T01:50:45;15.95;;;4.53;;
47053;SDS011;32811;52.382;5.270;2024-03-23T01:53:11;12.98;;;3.00;;
47053;SDS011;32811;52.382;5.270;2024-03-23T01:55:38;14.07;;;2.90;;
47053;SDS011;32811;52.382;5.270;2024-03-23T01:58:04;15.45;;;2.72;;
47053;SDS011;32811;52.382;5.270;2024-03-23T02:00:30;13.75;;;5.20;;
47053;SDS011;32811;52.382;5.270;2024-03-23T02:02:55;18.70;;;3.92;;
47053;SDS011;32811;52.382;5.270;2024-03-23T02:05:21;14.68;;;2.85;;
47053;SDS011;32811;52.382;5.270;2024-03-23T02:07:47;13.57;;;4.00;;
47053;SDS011;32811;52.382;5.270;2024-03-23T02:10:13;13.40;;;3.50;;
47053;SDS011;32811;52.382;5.270;2024-03-23T02:12:38;8.48;;;3.42;;
47053;SDS011;32811;52.382;5.270;2024-03-23T02:15:04;10.98;;;3.78;;
47053;SDS011;32811;52.382;5.270;2024-03-23T02:17:31;12.90;;;3.78;;
47053;SDS011;32811;52.382;5.270;2024-03-23T02:19:59;15.57;;;4.72;;
47053;SDS011;32811;52.382;5.270;2024-03-23T02:22:25;11.40;;;3.58;;
47053;SDS011;32811;52.382;5.270;2024-03-23T02:24:59;14.60;;;3.72;;
47053;SDS011;32811;52.382;5.270;2024-03-23T02:27:24;20.95;;;4.55;;
47053;SDS011;32811;52.382;5.270;2024-03-23T02:29:50;16.67;;;3.92;;
47053;SDS011;32811;52.382;5.270;2024-03-23T02:32:15;12.25;;;3.60;;
47053;SDS011;32811;52.382;5.270;2024-03-23T02:34:41;7.35;;;2.83;;
47053;SDS011;32811;52.382;5.270;2024-03-23T02:37:10;14.45;;;2.78;;
47053;SDS011;32811;52.382;5.270;2024-03-23T02:39:36;12.02;;;2.35;;
47053;SDS011;32811;52.382;5.270;2024-03-23T02:42:02;12.57;;;1.90;;
47053;SDS011;32811;52.382;5.270;2024-03-23T02:44:28;17.75;;;2.40;;
47053;SDS011;32811;52.382;5.270;2024-03-23T02:46:53;12.50;;;2.50;;
47053;SDS011;32811;52.382;5.270;2024-03-23T02:49:19;20.33;;;2.67;;
47053;SDS011;32811;52.382;5.270;2024-03-23T02:51:46;15.93;;;1.95;;
47053;SDS011;32811;52.382;5.270;2024-03-23T02:54:13;8.15;;;2.17;;
47053;SDS011;32811;52.382;5.270;2024-03-23T02:56:39;5.80;;;1.30;;
47053;SDS011;32811;52.382;5.270;2024-03-23T02:59:05;18.42;;;4.20;;
47053;SDS011;32811;52.382;5.270;2024-03-23T03:01:31;16.45;;;2.65;;
47053;SDS011;32811;52.382;5.270;2024-03-23T03:03:56;12.02;;;1.80;;
47053;SDS011;32811;52.382;5.270;2024-03-23T03:06:23;11.13;;;2.22;;
47053;SDS011;32811;52.382;5.270;2024-03-23T03:08:51;5.28;;;1.23;;
47053;SDS011;32811;52.382;5.270;2024-03-23T03:11:17;13.02;;;1.80;;
47053;SDS011;32811;52.382;5.270;2024-03-23T03:13:42;11.88;;;1.35;;
47053;SDS011;32811;52.382;5.270;2024-03-23T03:16:09;9.27;;;2.92;;
47053;SDS011;32811;52.382;5.270;2024-03-23T03:18:35;20.48;;;2.50;;
47053;SDS011;32811;52.382;5.270;2024-03-23T03:21:01;13.25;;;1.48;;
47053;SDS011;32811;52.382;5.270;2024-03-23T03:23:27;11.30;;;1.10;;
47053;SDS011;32811;52.382;5.270;2024-03-23T03:25:52;15.55;;;2.25;;
47053;SDS011;32811;52.382;5.270;2024-03-23T03:28:18;7.28;;;1.58;;
47053;SDS011;32811;52.382;5.270;2024-03-23T03:30:43;12.68;;;2.47;;
47053;SDS011;32811;52.382;5.270;2024-03-23T03:33:10;11.73;;;3.35;;
47053;SDS011;32811;52.382;5.270;2024-03-23T03:35:35;8.18;;;1.83;;
47053;SDS011;32811;52.382;5.270;2024-03-23T03:38:03;8.15;;;1.42;;
47053;SDS011;32811;52.382;5.270;2024-03-23T03:40:29;15.80;;;1.25;;
47053;SDS011;32811;52.382;5.270;2024-03-23T03:42:55;14.50;;;1.90;;
47053;SDS011;32811;52.382;5.270;2024-03-23T03:45:21;12.18;;;2.53;;
47053;SDS011;32811;52.382;5.270;2024-03-23T03:47:47;5.53;;;1.10;;
47053;SDS011;32811;52.382;5.270;2024-03-23T03:50:12;12.32;;;1.63;;
47053;SDS011;32811;52.382;5.270;2024-03-23T03:52:38;9.63;;;1.60;;
47053;SDS011;32811;52.382;5.270;2024-03-23T03:55:04;7.68;;;1.02;;
47053;SDS011;32811;52.382;5.270;2024-03-23T03:57:37;4.80;;;1.20;;
47053;SDS011;32811;52.382;5.270;2024-03-23T04:00:03;4.07;;;0.98;;
47053;SDS011;32811;52.382;5.270;2024-03-23T04:02:29;8.73;;;1.17;;
47053;SDS011;32811;52.382;5.270;2024-03-23T04:04:55;8.43;;;1.58;;
47053;SDS011;32811;52.382;5.270;2024-03-23T04:07:21;5.47;;;1.23;;
47053;SDS011;32811;52.382;5.270;2024-03-23T04:09:48;6.63;;;1.30;;
47053;SDS011;32811;52.382;5.270;2024-03-23T04:12:14;8.75;;;1.73;;
47053;SDS011;32811;52.382;5.270;2024-03-23T04:14:40;5.13;;;0.60;;
47053;SDS011;32811;52.382;5.270;2024-03-23T04:17:06;11.75;;;3.25;;
47053;SDS011;32811;52.382;5.270;2024-03-23T04:19:32;9.77;;;1.70;;
47053;SDS011;32811;52.382;5.270;2024-03-23T04:21:57;8.48;;;2.50;;
47053;SDS011;32811;52.382;5.270;2024-03-23T04:24:23;10.50;;;1.65;;
47053;SDS011;32811;52.382;5.270;2024-03-23T04:26:50;10.63;;;1.60;;
47053;SDS011;32811;52.382;5.270;2024-03-23T04:29:16;15.32;;;2.90;;
47053;SDS011;32811;52.382;5.270;2024-03-23T04:31:41;10.82;;;1.83;;
47053;SDS011;32811;52.382;5.270;2024-03-23T04:34:07;11.75;;;1.58;;
47053;SDS011;32811;52.382;5.270;2024-03-23T04:36:32;14.65;;;2.40;;
47053;SDS011;32811;52.382;5.270;2024-03-23T04:38:59;9.32;;;2.15;;
47053;SDS011;32811;52.382;5.270;2024-03-23T04:41:25;13.77;;;2.45;;
47053;SDS011;32811;52.382;5.270;2024-03-23T04:43:51;7.85;;;1.45;;
47053;SDS011;32811;52.382;5.270;2024-03-23T04:46:17;14.38;;;1.42;;
47053;SDS011;32811;52.382;5.270;2024-03-23T04:48:42;10.55;;;1.27;;
47053;SDS011;32811;52.382;5.270;2024-03-23T04:51:10;6.25;;;1.60;;
47053;SDS011;32811;52.382;5.270;2024-03-23T04:53:38;7.35;;;1.40;;
47053;SDS011;32811;52.382;5.270;2024-03-23T04:56:03;6.30;;;1.00;;
47053;SDS011;32811;52.382;5.270;2024-03-23T04:58:29;5.40;;;0.90;;
47053;SDS011;32811;52.382;5.270;2024-03-23T05:00:55;8.40;;;2.17;;
47053;SDS011;32811;52.382;5.270;2024-03-23T05:03:22;11.70;;;1.52;;
47053;SDS011;32811;52.382;5.270;2024-03-23T05:05:48;3.45;;;1.70;;
47053;SDS011;32811;52.382;5.270;2024-03-23T05:08:14;5.47;;;1.73;;
47053;SDS011;32811;52.382;5.270;2024-03-23T05:10:43;12.82;;;2.10;;
47053;SDS011;32811;52.382;5.270;2024-03-23T05:13:09;9.05;;;2.13;;
47053;SDS011;32811;52.382;5.270;2024-03-23T05:15:35;5.45;;;0.70;;
47053;SDS011;32811;52.382;5.270;2024-03-23T05:18:01;3.30;;;0.82;;
47053;SDS011;32811;52.382;5.270;2024-03-23T05:20:27;8.93;;;1.80;;
47053;SDS011;32811;52.382;5.270;2024-03-23T05:22:54;27.65;;;2.50;;
47053;SDS011;32811;52.382;5.270;2024-03-23T05:25:20;8.55;;;1.65;;
47053;SDS011;32811;52.382;5.270;2024-03-23T05:27:46;6.57;;;1.30;;
47053;SDS011;32811;52.382;5.270;2024-03-23T05:30:11;7.03;;;0.98;;
47053;SDS011;32811;52.382;5.270;2024-03-23T05:32:37;11.77;;;1.27;;
47053;SDS011;32811;52.382;5.270;2024-03-23T05:35:06;10.82;;;1.88;;
47053;SDS011;32811;52.382;5.270;2024-03-23T05:37:33;11.02;;;1.23;;
47053;SDS011;32811;52.382;5.270;2024-03-23T05:39:59;5.57;;;0.75;;
47053;SDS011;32811;52.382;5.270;2024-03-23T05:42:25;7.88;;;0.88;;
47053;SDS011;32811;52.382;5.270;2024-03-23T05:44:51;7.90;;;1.02;;
47053;SDS011;32811;52.382;5.270;2024-03-23T05:47:17;2.58;;;0.65;;
47053;SDS011;32811;52.382;5.270;2024-03-23T05:49:43;5.40;;;0.98;;
47053;SDS011;32811;52.382;5.270;2024-03-23T05:52:08;11.30;;;1.63;;
47053;SDS011;32811;52.382;5.270;2024-03-23T05:54:35;4.60;;;1.40;;
47053;SDS011;32811;52.382;5.270;2024-03-23T05:57:01;8.02;;;0.95;;
47053;SDS011;32811;52.382;5.270;2024-03-23T05:59:27;7.55;;;0.90;;
47053;SDS011;32811;52.382;5.270;2024-03-23T06:01:53;10.63;;;2.00;;
47053;SDS011;32811;52.382;5.270;2024-03-23T06:04:18;11.52;;;1.15;;
47053;SDS011;32811;52.382;5.270;2024-03-23T06:06:44;12.68;;;2.25;;
47053;SDS011;32811;52.382;5.270;2024-03-23T06:09:10;10.77;;;2.08;;
47053;SDS011;32811;52.382;5.270;2024-03-23T06:11:36;6.65;;;1.40;;
47053;SDS011;32811;52.382;5.270;2024-03-23T06:14:02;12.68;;;1.38;;
47053;SDS011;32811;52.382;5.270;2024-03-23T06:16:27;9.23;;;1.27;;
47053;SDS011;32811;52.382;5.270;2024-03-23T06:18:53;17.15;;;1.45;;
47053;SDS011;32811;52.382;5.270;2024-03-23T06:21:24;9.00;;;1.05;;
47053;SDS011;32811;52.382;5.270;2024-03-23T06:23:53;12.25;;;1.63;;
47053;SDS011;32811;52.382;5.270;2024-03-23T06:26:18;4.72;;;1.00;;
47053;SDS011;32811;52.382;5.270;2024-03-23T06:28:45;8.73;;;1.63;;
47053;SDS011;32811;52.382;5.270;2024-03-23T06:31:11;12.45;;;1.77;;
47053;SDS011;32811;52.382;5.270;2024-03-23T06:33:37;11.85;;;3.03;;
47053;SDS011;32811;52.382;5.270;2024-03-23T06:36:04;10.00;;;1.60;;
47053;SDS011;32811;52.382;5.270;2024-03-23T06:38:30;14.60;;;1.92;;
47053;SDS011;32811;52.382;5.270;2024-03-23T06:40:56;9.82;;;2.38;;
47053;SDS011;32811;52.382;5.270;2024-03-23T06:43:21;11.93;;;3.00;;
47053;SDS011;32811;52.382;5.270;2024-03-23T06:45:53;4.68;;;1.20;;
47053;SDS011;32811;52.382;5.270;2024-03-23T06:48:20;10.10;;;1.20;;
47053;SDS011;32811;52.382;5.270;2024-03-23T06:50:48;31.10;;;3.33;;
47053;SDS011;32811;52.382;5.270;2024-03-23T06:53:14;12.65;;;1.38;;
47053;SDS011;32811;52.382;5.270;2024-03-23T06:55:40;20.42;;;2.38;;
47053;SDS011;32811;52.382;5.270;2024-03-23T06:58:06;18.27;;;1.98;;
47053;SDS011;32811;52.382;5.270;2024-03-23T07:00:32;7.55;;;1.85;;
47053;SDS011;32811;52.382;5.270;2024-03-23T07:02:58;7.78;;;1.80;;
47053;SDS011;32811;52.382;5.270;2024-03-23T07:05:24;18.30;;;1.52;;
47053;SDS011;32811;52.382;5.270;2024-03-23T07:07:50;14.48;;;2.33;;
47053;SDS011;32811;52.382;5.270;2024-03-23T07:10:15;11.25;;;2.63;;
47053;SDS011;32811;52.382;5.270;2024-03-23T07:12:41;12.65;;;2.17;;
47053;SDS011;32811;52.382;5.270;2024-03-23T07:15:07;8.82;;;1.40;;
47053;SDS011;32811;52.382;5.270;2024-03-23T07:17:33;9.93;;;2.47;;
47053;SDS011;32811;52.382;5.270;2024-03-23T07:20:00;8.48;;;2.10;;
47053;SDS011;32811;52.382;5.270;2024-03-23T07:22:32;14.32;;;2.05;;
47053;SDS011;32811;52.382;5.270;2024-03-23T07:25:00;10.55;;;1.52;;
47053;SDS011;32811;52.382;5.270;2024-03-23T07:27:26;10.43;;;1.70;;
47053;SDS011;32811;52.382;5.270;2024-03-23T07:29:52;5.97;;;1.13;;
47053;SDS011;32811;52.382;5.270;2024-03-23T07:32:17;9.38;;;1.70;;
47053;SDS011;32811;52.382;5.270;2024-03-23T07:34:43;17.27;;;2.15;;
47053;SDS011;32811;52.382;5.270;2024-03-23T07:37:10;15.95;;;2.08;;
47053;SDS011;32811;52.382;5.270;2024-03-23T07:39:35;9.68;;;2.08;;
47053;SDS011;32811;52.382;5.270;2024-03-23T07:42:01;14.48;;;1.92;;
47053;SDS011;32811;52.382;5.270;2024-03-23T07:44:27;15.82;;;1.70;;
47053;SDS011;32811;52.382;5.270;2024-03-23T07:46:53;7.60;;;1.40;;
47053;SDS011;32811;52.382;5.270;2024-03-23T07:49:19;8.73;;;1.50;;
47053;SDS011;32811;52.382;5.270;2024-03-23T07:51:44;9.13;;;1.60;;
47053;SDS011;32811;52.382;5.270;2024-03-23T07:54:10;8.18;;;1.15;;
47053;SDS011;32811;52.382;5.270;2024-03-23T07:56:36;10.02;;;1.23;;
47053;SDS011;32811;52.382;5.270;2024-03-23T07:59:01;13.50;;;3.72;;
47053;SDS011;32811;52.382;5.270;2024-03-23T08:01:28;12.68;;;3.70;;
47053;SDS011;32811;52.382;5.270;2024-03-23T08:03:54;16.63;;;2.63;;
47053;SDS011;32811;52.382;5.270;2024-03-23T08:06:20;6.00;;;2.70;;
47053;SDS011;32811;52.382;5.270;2024-03-23T08:08:48;11.40;;;1.20;;
47053;SDS011;32811;52.382;5.270;2024-03-23T08:11:28;5.38;;;1.13;;
47053;SDS011;32811;52.382;5.270;2024-03-23T08:13:54;9.30;;;2.20;;
47053;SDS011;32811;52.382;5.270;2024-03-23T08:16:21;14.93;;;2.65;;
47053;SDS011;32811;52.382;5.270;2024-03-23T08:18:47;14.65;;;2.90;;
47053;SDS011;32811;52.382;5.270;2024-03-23T08:21:13;7.38;;;1.42;;
47053;SDS011;32811;52.382;5.270;2024-03-23T08:23:38;12.48;;;1.77;;
47053;SDS011;32811;52.382;5.270;2024-03-23T08:26:08;10.00;;;1.23;;
47053;SDS011;32811;52.382;5.270;2024-03-23T08:28:34;12.55;;;2.72;;
47053;SDS011;32811;52.382;5.270;2024-03-23T08:31:04;9.23;;;1.67;;
47053;SDS011;32811;52.382;5.270;2024-03-23T08:33:33;7.75;;;1.17;;
47053;SDS011;32811;52.382;5.270;2024-03-23T08:35:59;11.23;;;1.10;;
47053;SDS011;32811;52.382;5.270;2024-03-23T08:38:26;9.23;;;1.65;;
47053;SDS011;32811;52.382;5.270;2024-03-23T08:40:56;6.95;;;2.08;;
47053;SDS011;32811;52.382;5.270;2024-03-23T08:43:32;9.15;;;1.52;;
47053;SDS011;32811;52.382;5.270;2024-03-23T08:46:05;11.60;;;1.88;;
47053;SDS011;32811;52.382;5.270;2024-03-23T08:48:32;10.98;;;1.63;;
47053;SDS011;32811;52.382;5.270;2024-03-23T08:51:00;10.50;;;1.35;;
47053;SDS011;32811;52.382;5.270;2024-03-23T08:53:29;5.85;;;1.30;;
47053;SDS011;32811;52.382;5.270;2024-03-23T08:55:56;7.70;;;1.63;;
47053;SDS011;32811;52.382;5.270;2024-03-23T08:58:23;9.20;;;1.17;;
47053;SDS011;32811;52.382;5.270;2024-03-23T09:00:50;10.32;;;2.08;;
47053;SDS011;32811;52.382;5.270;2024-03-23T09:03:16;7.18;;;0.82;;
47053;SDS011;32811;52.382;5.270;2024-03-23T09:05:42;14.48;;;1.20;;
47053;SDS011;32811;52.382;5.270;2024-03-23T09:08:08;9.52;;;1.58;;
47053;SDS011;32811;52.382;5.270;2024-03-23T09:10:40;8.25;;;0.98;;
47053;SDS011;32811;52.382;5.270;2024-03-23T09:13:07;10.48;;;1.30;;
47053;SDS011;32811;52.382;5.270;2024-03-23T09:15:33;6.35;;;1.17;;
47053;SDS011;32811;52.382;5.270;2024-03-23T09:18:00;10.90;;;1.95;;
47053;SDS011;32811;52.382;5.270;2024-03-23T09:20:25;5.40;;;0.88;;
47053;SDS011;32811;52.382;5.270;2024-03-23T09:22:51;5.13;;;1.15;;
47053;SDS011;32811;52.382;5.270;2024-03-23T09:25:17;9.68;;;1.65;;
47053;SDS011;32811;52.382;5.270;2024-03-23T09:27:42;9.73;;;1.83;;
47053;SDS011;32811;52.382;5.270;2024-03-23T09:30:08;7.28;;;1.17;;
47053;SDS011;32811;52.382;5.270;2024-03-23T09:32:35;5.07;;;1.20;;
47053;SDS011;32811;52.382;5.270;2024-03-23T09:35:00;6.28;;;1.55;;
47053;SDS011;32811;52.382;5.270;2024-03-23T09:37:26;18.38;;;1.65;;
47053;SDS011;32811;52.382;5.270;2024-03-23T09:39:52;5.50;;;1.20;;
47053;SDS011;32811;52.382;5.270;2024-03-23T09:42:17;7.18;;;1.25;;
47053;SDS011;32811;52.382;5.270;2024-03-23T09:44:43;4.63;;;1.17;;
47053;SDS011;32811;52.382;5.270;2024-03-23T09:47:09;2.88;;;0.63;;
47053;SDS011;32811;52.382;5.270;2024-03-23T09:49:35;4.60;;;1.40;;
47053;SDS011;32811;52.382;5.270;2024-03-23T09:52:02;14.30;;;2.10;;
47053;SDS011;32811;52.382;5.270;2024-03-23T09:54:53;4.78;;;0.65;;
47053;SDS011;32811;52.382;5.270;2024-03-23T09:57:19;17.08;;;1.23;;
47053;SDS011;32811;52.382;5.270;2024-03-23T09:59:44;10.00;;;1.33;;
47053;SDS011;32811;52.382;5.270;2024-03-23T10:02:10;14.40;;;2.45;;
47053;SDS011;32811;52.382;5.270;2024-03-23T10:09:55;15.23;;;2.85;;
47053;SDS011;32811;52.382;5.270;2024-03-23T10:12:22;15.02;;;1.98;;
47053;SDS011;32811;52.382;5.270;2024-03-23T10:14:48;11.63;;;2.33;;
47053;SDS011;32811;52.382;5.270;2024-03-23T10:22:14;6.25;;;1.20;;
47053;SDS011;32811;52.382;5.270;2024-03-23T10:24:43;10.93;;;1.20;;
47053;SDS011;32811;52.382;5.270;2024-03-23T10:27:08;8.93;;;1.00;;
47053;SDS011;32811;52.382;5.270;2024-03-23T10:29:34;5.97;;;1.05;;
47053;SDS011;32811;52.382;5.270;2024-03-23T10:32:16;8.68;;;1.15;;
47053;SDS011;32811;52.382;5.270;2024-03-23T10:34:43;12.68;;;1.13;;
47053;SDS011;32811;52.382;5.270;2024-03-23T10:37:09;8.80;;;1.30;;
47053;SDS011;32811;52.382;5.270;2024-03-23T10:39:40;5.45;;;1.48;;
47053;SDS011;32811;52.382;5.270;2024-03-23T10:42:07;8.95;;;0.90;;
47053;SDS011;32811;52.382;5.270;2024-03-23T10:44:35;11.23;;;1.38;;
47053;SDS011;32811;52.382;5.270;2024-03-23T10:47:01;10.38;;;1.55;;
47053;SDS011;32811;52.382;5.270;2024-03-23T10:49:31;9.82;;;1.02;;
47053;SDS011;32811;52.382;5.270;2024-03-23T10:52:07;7.25;;;1.13;;
47053;SDS011;32811;52.382;5.270;2024-03-23T10:54:32;6.05;;;1.40;;
47053;SDS011;32811;52.382;5.270;2024-03-23T10:57:02;5.35;;;0.88;;
47053;SDS011;32811;52.382;5.270;2024-03-23T10:59:31;6.65;;;1.15;;
47053;SDS011;32811;52.382;5.270;2024-03-23T11:01:58;5.82;;;1.70;;
47053;SDS011;32811;52.382;5.270;2024-03-23T11:04:58;8.55;;;1.10;;
47053;SDS011;32811;52.382;5.270;2024-03-23T11:09:48;10.82;;;1.23;;
47053;SDS011;32811;52.382;5.270;2024-03-23T11:14:55;7.05;;;1.33;;
47053;SDS011;32811;52.382;5.270;2024-03-23T11:17:24;17.38;;;2.47;;
47053;SDS011;32811;52.382;5.270;2024-03-23T11:20:00;6.07;;;1.60;;
47053;SDS011;32811;52.382;5.270;2024-03-23T11:25:16;4.10;;;0.82;;
47053;SDS011;32811;52.382;5.270;2024-03-23T11:27:43;7.57;;;1.60;;
47053;SDS011;32811;52.382;5.270;2024-03-23T11:32:41;14.27;;;1.85;;
47053;SDS011;32811;52.382;5.270;2024-03-23T11:35:08;13.13;;;1.05;;
47053;SDS011;32811;52.382;5.270;2024-03-23T11:37:38;7.32;;;1.20;;
47053;SDS011;32811;52.382;5.270;2024-03-23T11:40:16;7.80;;;1.17;;
47053;SDS011;32811;52.382;5.270;2024-03-23T11:42:43;7.30;;;1.38;;
47053;SDS011;32811;52.382;5.270;2024-03-23T11:45:09;7.85;;;1.17;;
47053;SDS011;32811;52.382;5.270;2024-03-23T11:47:35;8.65;;;0.88;;
47053;SDS011;32811;52.382;5.270;2024-03-23T11:50:00;10.23;;;1.15;;
47053;SDS011;32811;52.382;5.270;2024-03-23T11:52:26;7.28;;;2.35;;
47053;SDS011;32811;52.382;5.270;2024-03-23T11:54:52;6.47;;;1.50;;
47053;SDS011;32811;52.382;5.270;2024-03-23T11:57:28;6.55;;;0.90;;
47053;SDS011;32811;52.382;5.270;2024-03-23T11:59:55;10.20;;;1.50;;
47053;SDS011;32811;52.382;5.270;2024-03-23T12:02:20;11.43;;;1.50;;
47053;SDS011;32811;52.382;5.270;2024-03-23T12:04:46;10.27;;;1.67;;
47053;SDS011;32811;52.382;5.270;2024-03-23T12:07:15;8.25;;;2.03;;
47053;SDS011;32811;52.382;5.270;2024-03-23T12:09:44;11.07;;;1.42;;
47053;SDS011;32811;52.382;5.270;2024-03-23T12:12:15;9.02;;;1.20;;
47053;SDS011;32811;52.382;5.270;2024-03-23T12:14:44;9.93;;;2.20;;
47053;SDS011;32811;52.382;5.270;2024-03-23T12:17:11;9.85;;;1.05;;
47053;SDS011;32811;52.382;5.270;2024-03-23T12:19:37;9.32;;;2.60;;
47053;SDS011;32811;52.382;5.270;2024-03-23T12:22:03;4.05;;;1.38;;
47053;SDS011;32811;52.382;5.270;2024-03-23T12:24:30;3.90;;;0.47;;
47053;SDS011;32811;52.382;5.270;2024-03-23T12:27:03;4.40;;;0.80;;
47053;SDS011;32811;52.382;5.270;2024-03-23T12:29:32;8.35;;;1.40;;
47053;SDS011;32811;52.382;5.270;2024-03-23T12:32:01;2.58;;;0.25;;
47053;SDS011;32811;52.382;5.270;2024-03-23T12:34:28;2.60;;;0.70;;
47053;SDS011;32811;52.382;5.270;2024-03-23T12:36:55;4.43;;;0.35;;
47053;SDS011;32811;52.382;5.270;2024-03-23T12:39:21;4.72;;;0.40;;
47053;SDS011;32811;52.382;5.270;2024-03-23T12:41:49;2.38;;;0.40;;
47053;SDS011;32811;52.382;5.270;2024-03-23T12:44:15;8.38;;;0.88;;
47053;SDS011;32811;52.382;5.270;2024-03-23T12:46:41;6.07;;;0.63;;
47053;SDS011;32811;52.382;5.270;2024-03-23T12:49:07;9.40;;;1.05;;
47053;SDS011;32811;52.382;5.270;2024-03-23T12:51:33;3.67;;;0.77;;
47053;SDS011;32811;52.382;5.270;2024-03-23T12:53:59;10.48;;;1.08;;
47053;SDS011;32811;52.382;5.270;2024-03-23T12:56:25;5.53;;;1.23;;
47053;SDS011;32811;52.382;5.270;2024-03-23T12:58:53;5.63;;;0.63;;
47053;SDS011;32811;52.382;5.270;2024-03-23T13:01:20;12.85;;;2.33;;
47053;SDS011;32811;52.382;5.270;2024-03-23T13:03:47;11.50;;;1.52;;
47053;SDS011;32811;52.382;5.270;2024-03-23T13:06:13;12.20;;;1.98;;
47053;SDS011;32811;52.382;5.270;2024-03-23T13:08:39;11.43;;;1.10;;
47053;SDS011;32811;52.382;5.270;2024-03-23T13:11:06;7.70;;;1.65;;
47053;SDS011;32811;52.382;5.270;2024-03-23T13:13:36;14.43;;;1.45;;
47053;SDS011;32811;52.382;5.270;2024-03-23T13:16:02;9.23;;;1.95;;
47053;SDS011;32811;52.382;5.270;2024-03-23T13:18:28;11.77;;;1.52;;
47053;SDS011;32811;52.382;5.270;2024-03-23T13:20:55;10.10;;;1.20;;
47053;SDS011;32811;52.382;5.270;2024-03-23T13:23:20;8.10;;;1.70;;
47053;SDS011;32811;52.382;5.270;2024-03-23T13:25:53;8.88;;;0.65;;
47053;SDS011;32811;52.382;5.270;2024-03-23T13:28:19;3.03;;;0.50;;
47053;SDS011;32811;52.382;5.270;2024-03-23T13:30:55;5.40;;;0.77;;
47053;SDS011;32811;52.382;5.270;2024-03-23T13:33:21;3.55;;;0.82;;
47053;SDS011;32811;52.382;5.270;2024-03-23T13:35:54;4.60;;;0.90;;
47053;SDS011;32811;52.382;5.270;2024-03-23T13:38:23;6.97;;;0.75;;
47053;SDS011;32811;52.382;5.270;2024-03-23T13:40:56;3.78;;;1.10;;
47053;SDS011;32811;52.382;5.270;2024-03-23T13:43:23;6.10;;;0.65;;
47053;SDS011;32811;52.382;5.270;2024-03-23T13:45:51;8.18;;;0.75;;
47053;SDS011;32811;52.382;5.270;2024-03-23T13:48:22;10.63;;;1.77;;
47053;SDS011;32811;52.382;5.270;2024-03-23T13:51:01;5.40;;;0.77;;
47053;SDS011;32811;52.382;5.270;2024-03-23T13:53:42;9.30;;;1.15;;
47053;SDS011;32811;52.382;5.270;2024-03-23T13:56:12;8.90;;;2.05;;
47053;SDS011;32811;52.382;5.270;2024-03-23T13:58:38;8.43;;;1.90;;
47053;SDS011;32811;52.382;5.270;2024-03-23T14:01:04;8.75;;;1.65;;
47053;SDS011;32811;52.382;5.270;2024-03-23T14:03:30;5.75;;;1.33;;
47053;SDS011;32811;52.382;5.270;2024-03-23T14:05:58;5.15;;;1.05;;
47053;SDS011;32811;52.382;5.270;2024-03-23T14:08:23;12.85;;;1.63;;
47053;SDS011;32811;52.382;5.270;2024-03-23T14:10:53;8.10;;;0.95;;
47053;SDS011;32811;52.382;5.270;2024-03-23T14:13:21;11.88;;;1.63;;
47053;SDS011;32811;52.382;5.270;2024-03-23T14:15:53;8.00;;;0.95;;
47053;SDS011;32811;52.382;5.270;2024-03-23T14:18:25;5.97;;;1.20;;
47053;SDS011;32811;52.382;5.270;2024-03-23T14:21:03;7.15;;;0.80;;
47053;SDS011;32811;52.382;5.270;2024-03-23T14:23:50;6.93;;;1.00;;
47053;SDS011;32811;52.382;5.270;2024-03-23T14:26:18;9.82;;;1.50;;
47053;SDS011;32811;52.382;5.270;2024-03-23T14:28:49;9.85;;;1.35;;
47053;SDS011;32811;52.382;5.270;2024-03-23T14:31:21;7.93;;;2.25;;
47053;SDS011;32811;52.382;5.270;2024-03-23T14:33:51;6.88;;;0.95;;
47053;SDS011;32811;52.382;5.270;2024-03-23T14:36:22;10.10;;;1.27;;
47053;SDS011;32811;52.382;5.270;2024-03-23T14:39:00;5.45;;;0.95;;
47053;SDS011;32811;52.382;5.270;2024-03-23T14:41:33;5.30;;;1.08;;
47053;SDS011;32811;52.382;5.270;2024-03-23T14:44:04;4.88;;;1.00;;
47053;SDS011;32811;52.382;5.270;2024-03-23T14:46:30;10.73;;;2.00;;
47053;SDS011;32811;52.382;5.270;2024-03-23T14:48:59;5.22;;;1.48;;
47053;SDS011;32811;52.382;5.270;2024-03-23T14:51:36;8.85;;;1.10;;
47053;SDS011;32811;52.382;5.270;2024-03-23T14:54:27;5.78;;;0.80;;
47053;SDS011;32811;52.382;5.270;2024-03-23T14:56:55;7.90;;;1.63;;
47053;SDS011;32811;52.382;5.270;2024-03-23T14:59:36;2.72;;;0.88;;
47053;SDS011;32811;52.382;5.270;2024-03-23T15:02:11;3.92;;;0.52;;
47053;SDS011;32811;52.382;5.270;2024-03-23T15:04:43;5.68;;;0.95;;
47053;SDS011;32811;52.382;5.270;2024-03-23T15:07:09;3.38;;;0.55;;
47053;SDS011;32811;52.382;5.270;2024-03-23T15:09:41;8.10;;;0.75;;
47053;SDS011;32811;52.382;5.270;2024-03-23T15:12:07;8.52;;;1.02;;
47053;SDS011;32811;52.382;5.270;2024-03-23T15:14:33;4.22;;;0.90;;
47053;SDS011;32811;52.382;5.270;2024-03-23T15:17:14;5.05;;;1.38;;
47053;SDS011;32811;52.382;5.270;2024-03-23T15:19:51;9.80;;;1.83;;
47053;SDS011;32811;52.382;5.270;2024-03-23T15:22:23;13.20;;;1.17;;
47053;SDS011;32811;52.382;5.270;2024-03-23T15:24:57;2.50;;;0.67;;
47053;SDS011;32811;52.382;5.270;2024-03-23T15:27:38;3.00;;;1.33;;
47053;SDS011;32811;52.382;5.270;2024-03-23T15:30:12;6.75;;;1.00;;
47053;SDS011;32811;52.382;5.270;2024-03-23T15:32:38;7.25;;;1.00;;
47053;SDS011;32811;52.382;5.270;2024-03-23T15:35:16;7.60;;;0.85;;
47053;SDS011;32811;52.382;5.270;2024-03-23T15:37:48;5.80;;;1.10;;
47053;SDS011;32811;52.382;5.270;2024-03-23T15:42:59;3.25;;;0.80;;
47053;SDS011;32811;52.382;5.270;2024-03-23T15:45:31;7.18;;;0.80;;
47053;SDS011;32811;52.382;5.270;2024-03-23T15:48:00;11.65;;;2.00;;
47053;SDS011;32811;52.382;5.270;2024-03-23T15:50:34;4.30;;;0.90;;
47053;SDS011;32811;52.382;5.270;2024-03-23T15:53:05;8.40;;;1.98;;
47053;SDS011;32811;52.382;5.270;2024-03-23T15:55:44;6.00;;;0.80;;
47053;SDS011;32811;52.382;5.270;2024-03-23T15:58:43;6.32;;;1.40;;